createdAt,value
2023-02-09T00:00:10.879Z,8.07
2023-02-09T00:02:38.624Z,8.10
2023-02-09T00:05:05.444Z,7.90
2023-02-09T00:07:32.036Z,8.25
2023-02-09T00:09:58.648Z,8.00
2023-02-09T00:12:43.714Z,8.60
2023-02-09T00:15:10.343Z,8.65
2023-02-09T00:17:37.624Z,8.88
2023-02-09T00:20:06.215Z,8.75
2023-02-09T00:22:33.192Z,8.77
2023-02-09T00:25:00.044Z,8.90
2023-02-09T00:27:26.622Z,8.48
2023-02-09T00:29:53.200Z,8.43
2023-02-09T00:32:19.778Z,8.48
2023-02-09T00:34:46.405Z,7.93
2023-02-09T00:37:13.145Z,8.15
2023-02-09T00:39:39.709Z,8.38
2023-02-09T00:42:06.285Z,7.53
2023-02-09T00:44:34.086Z,8.07
2023-02-09T00:47:01.209Z,8.02
2023-02-09T00:49:28.307Z,8.27
2023-02-09T00:51:55.225Z,8.10
2023-02-09T00:54:22.001Z,8.23
2023-02-09T00:56:49.403Z,7.93
2023-02-09T00:59:16.450Z,8.23
2023-02-09T01:01:43.111Z,8.07
2023-02-09T01:04:09.648Z,8.27
2023-02-09T01:06:36.258Z,8.10
2023-02-09T01:09:03.113Z,8.15
2023-02-09T01:11:30.390Z,8.02
2023-02-09T01:13:58.733Z,8.80
2023-02-09T01:18:51.930Z,8.55
2023-02-09T01:21:20.805Z,8.52
2023-02-09T01:23:47.951Z,8.18
2023-02-09T01:26:15.444Z,7.97
2023-02-09T01:28:42.450Z,9.60
2023-02-09T01:31:25.818Z,8.30
2023-02-09T01:33:54.055Z,7.82
2023-02-09T01:36:21.336Z,8.50
2023-02-09T01:38:47.914Z,8.80
2023-02-09T01:41:15.047Z,8.40
2023-02-09T01:44:01.711Z,8.15
2023-02-09T01:46:30.897Z,7.95
2023-02-09T01:49:13.933Z,8.05
2023-02-09T01:52:13.245Z,7.90
2023-02-09T01:54:52.088Z,8.35
2023-02-09T01:57:26.912Z,8.55
2023-02-09T01:59:56.875Z,7.65
2023-02-09T02:02:23.742Z,8.88
2023-02-09T02:04:51.091Z,8.02
2023-02-09T02:07:28.978Z,7.93
2023-02-09T02:09:55.659Z,8.20
2023-02-09T02:12:22.686Z,8.93
2023-02-09T02:14:49.296Z,7.80
2023-02-09T02:17:33.881Z,8.05
2023-02-09T02:20:10.111Z,8.13
2023-02-09T02:22:57.599Z,8.60
2023-02-09T02:25:29.586Z,8.68
2023-02-09T02:28:20.972Z,8.10
2023-02-09T02:31:02.543Z,8.20
2023-02-09T02:33:53.290Z,8.27
2023-02-09T02:36:28.518Z,8.02
2023-02-09T02:39:08.568Z,8.52
2023-02-09T02:42:17.937Z,7.35
2023-02-09T02:44:52.908Z,8.27
2023-02-09T02:47:20.619Z,8.45
2023-02-09T02:50:16.911Z,8.35
2023-02-09T02:52:45.950Z,8.73
2023-02-09T02:55:15.389Z,8.18
2023-02-09T02:57:44.824Z,8.15
2023-02-09T03:00:20.234Z,8.55
2023-02-09T03:02:53.621Z,7.90
2023-02-09T03:05:23.034Z,8.38
2023-02-09T03:07:49.985Z,7.57
2023-02-09T03:10:43.403Z,9.63
2023-02-09T03:13:31.308Z,8.50
2023-02-09T03:16:07.029Z,7.90
2023-02-09T03:18:55.522Z,7.35
2023-02-09T03:21:34.149Z,7.22
2023-02-09T03:24:06.859Z,6.28
2023-02-09T03:26:40.438Z,7.40
2023-02-09T03:29:08.250Z,6.60
2023-02-09T03:31:35.429Z,7.78
2023-02-09T03:34:02.310Z,7.85
2023-02-09T03:36:34.115Z,7.65
2023-02-09T03:39:01.919Z,8.02
2023-02-09T03:41:28.677Z,7.40
2023-02-09T03:44:13.870Z,7.68
2023-02-09T03:46:40.511Z,7.85
2023-02-09T03:49:07.099Z,7.75
2023-02-09T03:51:33.661Z,7.22
2023-02-09T03:54:00.231Z,7.32
2023-02-09T03:56:26.860Z,6.80
2023-02-09T03:58:53.465Z,6.80
2023-02-09T04:01:20.145Z,7.22
2023-02-09T04:03:46.727Z,7.22
2023-02-09T04:06:13.342Z,7.22
2023-02-09T04:08:39.918Z,7.10
2023-02-09T04:11:06.639Z,7.93
2023-02-09T04:13:33.326Z,6.32
2023-02-09T04:15:59.897Z,7.22
2023-02-09T04:18:26.595Z,7.63
2023-02-09T04:20:53.207Z,7.28
2023-02-09T04:23:21.093Z,7.03
2023-02-09T04:25:47.875Z,7.55
2023-02-09T04:28:14.509Z,7.80
2023-02-09T04:30:43.786Z,7.93
2023-02-09T04:33:13.400Z,7.72
2023-02-09T04:35:40.026Z,8.50
2023-02-09T04:38:06.673Z,7.82
2023-02-09T04:40:33.734Z,6.90
2023-02-09T04:43:00.304Z,7.63
2023-02-09T04:45:26.998Z,7.85
2023-02-09T04:47:53.675Z,7.85
2023-02-09T04:50:20.269Z,7.53
2023-02-09T04:52:46.889Z,7.13
2023-02-09T04:55:13.473Z,6.63
2023-02-09T04:57:58.633Z,8.30
2023-02-09T05:00:25.235Z,8.00
2023-02-09T05:02:51.863Z,6.57
2023-02-09T05:05:19.752Z,6.82
2023-02-09T05:07:46.545Z,7.82
2023-02-09T05:10:13.140Z,6.88
2023-02-09T05:12:39.735Z,7.60
2023-02-09T05:15:06.540Z,6.38
2023-02-09T05:17:33.609Z,8.35
2023-02-09T05:20:00.250Z,7.00
2023-02-09T05:22:27.209Z,7.50
2023-02-09T05:24:53.894Z,7.20
2023-02-09T05:27:20.538Z,7.95
2023-02-09T05:29:47.169Z,8.55
2023-02-09T05:32:13.812Z,8.93
2023-02-09T05:34:40.406Z,7.30
2023-02-09T05:37:07.039Z,7.13
2023-02-09T05:39:33.626Z,7.18
2023-02-09T05:42:18.278Z,7.68
2023-02-09T05:44:49.716Z,6.80
2023-02-09T05:47:21.358Z,6.13
2023-02-09T05:49:48.005Z,7.45
2023-02-09T05:52:15.137Z,6.50
2023-02-09T05:54:41.717Z,6.50
2023-02-09T05:57:08.783Z,7.57
2023-02-09T05:59:35.432Z,7.75
2023-02-09T06:02:02.066Z,7.88
2023-02-09T06:04:29.241Z,6.68
2023-02-09T06:06:56.461Z,6.90
2023-02-09T06:09:23.149Z,7.20
2023-02-09T06:11:49.967Z,7.50
2023-02-09T06:14:17.750Z,7.40
2023-02-09T06:16:44.903Z,8.25
2023-02-09T06:19:17.465Z,7.15
2023-02-09T06:21:44.599Z,7.32
2023-02-09T06:24:11.652Z,7.45
2023-02-09T06:26:38.459Z,7.25
2023-02-09T06:29:05.066Z,7.13
2023-02-09T06:31:31.836Z,8.05
2023-02-09T06:33:58.507Z,7.03
2023-02-09T06:36:25.080Z,6.70
2023-02-09T06:38:51.906Z,7.25
2023-02-09T06:41:18.557Z,7.47
2023-02-09T06:43:45.134Z,7.65
2023-02-09T06:46:13.083Z,6.70
2023-02-09T06:48:39.995Z,6.88
2023-02-09T06:51:08.395Z,7.35
2023-02-09T06:53:35.633Z,5.80
2023-02-09T06:56:02.465Z,6.82
2023-02-09T06:58:29.055Z,7.35
2023-02-09T07:00:55.571Z,7.25
2023-02-09T07:03:22.194Z,8.02
2023-02-09T07:05:48.796Z,7.00
2023-02-09T07:08:15.402Z,7.40
2023-02-09T07:10:42.033Z,7.07
2023-02-09T07:13:08.583Z,7.30
2023-02-09T07:15:35.271Z,7.13
2023-02-09T07:18:01.848Z,7.53
2023-02-09T07:20:28.522Z,7.45
2023-02-09T07:22:55.097Z,7.68
2023-02-09T07:25:21.724Z,7.25
2023-02-09T07:27:48.315Z,8.13
2023-02-09T07:30:15.847Z,6.75
2023-02-09T07:32:42.559Z,6.88
2023-02-09T07:35:09.212Z,6.70
2023-02-09T07:37:36.211Z,7.55
2023-02-09T07:40:03.045Z,7.38
2023-02-09T07:42:29.609Z,7.47
2023-02-09T07:44:56.220Z,7.75
2023-02-09T07:47:22.793Z,6.75
2023-02-09T07:49:49.398Z,7.25
2023-02-09T07:52:15.950Z,7.25
2023-02-09T07:54:42.625Z,6.50
2023-02-09T07:57:09.205Z,7.30
2023-02-09T07:59:35.855Z,7.82
2023-02-09T08:02:02.657Z,6.60
2023-02-09T08:04:29.583Z,7.10
2023-02-09T08:06:56.424Z,7.53
2023-02-09T08:09:22.968Z,7.78
2023-02-09T08:11:56.405Z,7.53
2023-02-09T08:14:29.660Z,7.28
2023-02-09T08:17:18.766Z,7.32
2023-02-09T08:19:47.532Z,7.40
2023-02-09T08:22:14.310Z,7.65
2023-02-09T08:24:41.094Z,7.10
2023-02-09T08:27:07.699Z,7.30
2023-02-09T08:29:34.350Z,7.97
2023-02-09T08:32:01.021Z,7.97
2023-02-09T08:34:27.620Z,7.45
2023-02-09T08:36:54.276Z,7.10
2023-02-09T08:39:20.817Z,7.35
2023-02-09T08:41:47.377Z,7.97
2023-02-09T08:44:14.301Z,8.05
2023-02-09T08:46:41.041Z,7.75
2023-02-09T08:49:07.714Z,7.63
2023-02-09T08:51:34.268Z,7.47
2023-02-09T08:54:00.968Z,7.43
2023-02-09T08:56:27.812Z,8.23
2023-02-09T08:58:54.436Z,7.63
2023-02-09T09:01:21.123Z,7.00
2023-02-09T09:03:48.108Z,7.72
2023-02-09T09:06:15.166Z,7.65
2023-02-09T09:08:41.712Z,9.30
2023-02-09T09:11:12.891Z,8.00
2023-02-09T09:13:40.791Z,7.95
2023-02-09T09:16:07.945Z,7.63
2023-02-09T09:18:34.674Z,8.20
2023-02-09T09:21:01.313Z,9.85
2023-02-09T09:23:27.860Z,8.75
2023-02-09T09:25:54.433Z,7.90
2023-02-09T09:28:21.135Z,8.20
2023-02-09T09:30:47.823Z,8.93
2023-02-09T09:33:14.446Z,8.15
2023-02-09T09:35:41.315Z,8.48
2023-02-09T09:38:07.861Z,8.63
2023-02-09T09:40:35.954Z,9.00
2023-02-09T09:43:04.970Z,8.52
2023-02-09T09:45:35.129Z,8.70
2023-02-09T09:48:02.178Z,8.57
2023-02-09T09:50:38.272Z,9.35
2023-02-09T09:53:26.065Z,7.45
2023-02-09T09:55:55.638Z,8.55
2023-02-09T09:58:22.517Z,8.63
2023-02-09T10:00:49.246Z,8.05
2023-02-09T10:03:20.432Z,8.13
2023-02-09T10:05:49.952Z,8.40
2023-02-09T10:08:28.649Z,8.48
2023-02-09T10:10:58.301Z,8.60
2023-02-09T10:13:37.927Z,8.70
2023-02-09T10:16:10.898Z,8.20
2023-02-09T10:18:38.293Z,8.77
2023-02-09T10:21:07.314Z,8.70
2023-02-09T10:23:41.302Z,9.63
2023-02-09T10:26:07.811Z,8.75
2023-02-09T10:28:42.291Z,8.15
2023-02-09T10:31:27.394Z,8.30
2023-02-09T10:34:09.187Z,9.50
2023-02-09T10:36:37.630Z,9.30
2023-02-09T10:41:54.687Z,8.13
2023-02-09T10:44:26.482Z,8.30
2023-02-09T10:47:31.873Z,8.60
2023-02-09T10:50:17.609Z,9.02
2023-02-09T10:53:01.702Z,8.35
2023-02-09T10:55:28.287Z,8.18
2023-02-09T10:58:28.374Z,8.57
2023-02-09T11:01:10.000Z,8.55
2023-02-09T11:03:38.323Z,8.20
2023-02-09T11:06:17.763Z,8.95
2023-02-09T11:08:47.785Z,9.55
2023-02-09T11:11:36.777Z,8.60
2023-02-09T11:14:03.633Z,9.00
2023-02-09T11:17:11.146Z,8.90
2023-02-09T11:19:56.101Z,8.48
2023-02-09T11:22:44.005Z,8.52
2023-02-09T11:25:57.145Z,9.77
2023-02-09T11:28:39.824Z,8.27
2023-02-09T11:31:24.733Z,9.23
2023-02-09T11:34:03.822Z,9.07
2023-02-09T11:37:07.231Z,9.00
2023-02-09T11:39:38.339Z,9.63
2023-02-09T11:42:32.598Z,8.95
2023-02-09T11:45:37.869Z,8.80
2023-02-09T11:48:11.005Z,9.50
2023-02-09T11:50:55.996Z,9.65
2023-02-09T11:53:43.257Z,8.68
2023-02-09T11:56:13.148Z,8.90
2023-02-09T11:58:50.512Z,9.85
2023-02-09T12:01:54.686Z,9.10
2023-02-09T12:04:24.306Z,9.40
2023-02-09T12:06:54.849Z,9.00
2023-02-09T12:09:41.820Z,9.75
2023-02-09T12:12:13.420Z,9.75
2023-02-09T12:15:09.114Z,8.93
2023-02-09T12:17:46.253Z,9.38
2023-02-09T12:20:23.982Z,9.18
2023-02-09T12:23:01.240Z,8.75
2023-02-09T12:25:45.891Z,8.15
2023-02-09T12:28:35.933Z,9.32
2023-02-09T12:31:09.999Z,10.10
2023-02-09T12:33:39.055Z,9.80
2023-02-09T12:36:12.748Z,9.77
2023-02-09T12:38:56.028Z,9.70
2023-02-09T12:41:30.866Z,8.18
2023-02-09T12:44:09.629Z,8.82
2023-02-09T12:46:45.337Z,8.73
2023-02-09T12:49:11.917Z,8.90
2023-02-09T12:51:50.529Z,8.00
2023-02-09T12:54:39.114Z,8.95
2023-02-09T12:57:14.816Z,9.60
2023-02-09T12:59:50.719Z,9.50
2023-02-09T13:02:39.941Z,9.32
2023-02-09T13:05:13.889Z,9.63
2023-02-09T13:07:58.699Z,9.20
2023-02-09T13:10:26.818Z,9.13
2023-02-09T13:12:55.962Z,8.65
2023-02-09T13:15:22.549Z,8.52
2023-02-09T13:18:06.596Z,8.18
2023-02-09T13:20:55.342Z,8.60
2023-02-09T13:23:36.568Z,8.20
2023-02-09T13:26:24.109Z,8.10
2023-02-09T13:29:19.807Z,8.98
2023-02-09T13:32:17.045Z,8.85
2023-02-09T13:34:57.149Z,9.15
2023-02-09T13:37:39.385Z,9.57
2023-02-09T13:40:22.272Z,8.70
2023-02-09T13:43:03.519Z,7.82
2023-02-09T13:45:30.485Z,8.10
2023-02-09T13:47:59.290Z,8.48
2023-02-09T13:50:28.435Z,8.50
2023-02-09T13:53:08.138Z,8.35
2023-02-09T13:55:37.688Z,7.88
2023-02-09T13:58:07.170Z,8.20
2023-02-09T14:00:44.159Z,8.25
2023-02-09T14:03:24.692Z,8.13
2023-02-09T14:05:59.609Z,8.25
2023-02-09T14:08:26.843Z,9.60
2023-02-09T14:11:15.283Z,8.32
2023-02-09T14:13:45.162Z,8.30
2023-02-09T14:16:15.674Z,7.30
2023-02-09T14:18:58.793Z,8.95
2023-02-09T14:21:44.605Z,7.65
2023-02-09T14:24:17.497Z,9.27
2023-02-09T14:26:47.091Z,8.73
2023-02-09T14:29:21.200Z,8.25
2023-02-09T14:32:33.488Z,7.20
2023-02-09T14:35:15.151Z,8.40
2023-02-09T14:37:42.804Z,8.77
2023-02-09T14:40:09.291Z,7.38
2023-02-09T14:42:39.999Z,7.90
2023-02-09T14:45:16.023Z,8.38
2023-02-09T14:47:44.751Z,7.80
2023-02-09T14:50:14.546Z,8.57
2023-02-09T14:52:46.707Z,8.60
2023-02-09T14:55:20.090Z,7.95
2023-02-09T14:57:47.036Z,8.85
2023-02-09T15:00:33.842Z,8.73
2023-02-09T15:03:00.607Z,8.32
2023-02-09T15:05:28.886Z,8.57
2023-02-09T15:08:03.201Z,8.38
2023-02-09T15:10:53.406Z,8.45
2023-02-09T15:13:21.031Z,8.75
2023-02-09T15:15:47.974Z,8.40
2023-02-09T15:18:19.219Z,8.82
2023-02-09T15:20:46.286Z,7.78
2023-02-09T15:23:13.277Z,9.07
2023-02-09T15:25:40.300Z,8.77
2023-02-09T15:28:18.803Z,8.20
2023-02-09T15:30:45.959Z,8.63
2023-02-09T15:33:13.128Z,8.43
2023-02-09T15:35:41.092Z,8.40
2023-02-09T15:38:09.953Z,8.68
2023-02-09T15:41:07.266Z,7.80
2023-02-09T15:43:52.950Z,8.82
2023-02-09T15:46:38.858Z,8.50
2023-02-09T15:49:08.255Z,9.00
2023-02-09T15:51:37.928Z,8.38
2023-02-09T15:54:12.809Z,8.35
2023-02-09T15:56:39.520Z,9.23
2023-02-09T15:59:06.313Z,9.05
2023-02-09T16:01:34.577Z,9.23
2023-02-09T16:06:40.121Z,8.75
2023-02-09T16:09:09.714Z,8.60
2023-02-09T16:11:40.400Z,8.48
2023-02-09T16:14:15.267Z,9.50
2023-02-09T16:16:42.234Z,8.90
2023-02-09T16:19:08.819Z,9.05
2023-02-09T16:21:35.797Z,9.57
2023-02-09T16:24:05.344Z,8.73
2023-02-09T16:26:32.804Z,8.43
2023-02-09T16:28:59.379Z,9.77
2023-02-09T16:31:26.503Z,9.73
2023-02-09T16:33:53.145Z,9.00
2023-02-09T16:36:21.677Z,9.30
2023-02-09T16:38:48.340Z,9.75
2023-02-09T16:41:35.694Z,8.85
2023-02-09T16:44:11.923Z,10.00
2023-02-09T16:46:38.585Z,9.50
2023-02-09T16:49:05.327Z,9.13
2023-02-09T16:51:31.873Z,9.32
2023-02-09T16:53:58.439Z,10.07
2023-02-09T16:56:26.260Z,9.45
2023-02-09T16:58:52.928Z,9.23
2023-02-09T17:01:22.968Z,8.88
2023-02-09T17:03:53.259Z,9.50
2023-02-09T17:06:22.459Z,9.77
2023-02-09T17:08:49.087Z,9.35
2023-02-09T17:11:19.091Z,9.85
2023-02-09T17:13:45.669Z,9.80
2023-02-09T17:16:17.935Z,9.40
2023-02-09T17:18:46.149Z,9.07
2023-02-09T17:21:31.552Z,9.93
2023-02-09T17:23:58.322Z,8.98
2023-02-09T17:26:24.915Z,9.80
2023-02-09T17:28:51.692Z,10.93
2023-02-09T17:31:26.774Z,10.30
2023-02-09T17:33:58.249Z,10.32
2023-02-09T17:36:28.255Z,10.48
2023-02-09T17:38:57.177Z,10.35
2023-02-09T17:41:40.823Z,10.98
2023-02-09T17:44:26.366Z,10.05
2023-02-09T17:46:58.509Z,11.25
2023-02-09T17:49:25.204Z,10.60
2023-02-09T17:51:52.897Z,9.27
2023-02-09T17:54:20.815Z,9.30
2023-02-09T17:56:47.601Z,9.48
2023-02-09T17:59:14.858Z,9.60
2023-02-09T18:01:46.548Z,10.95
2023-02-09T18:04:21.917Z,9.77
2023-02-09T18:06:48.807Z,10.43
2023-02-09T18:09:15.490Z,9.98
2023-02-09T18:11:45.140Z,9.85
2023-02-09T18:14:16.562Z,10.65
2023-02-09T18:16:43.965Z,9.63
2023-02-09T18:19:11.779Z,10.00
2023-02-09T18:21:39.336Z,10.27
2023-02-09T18:24:06.396Z,9.57
2023-02-09T18:26:33.658Z,10.38
2023-02-09T18:29:00.217Z,10.57
2023-02-09T18:31:26.784Z,9.93
2023-02-09T18:33:54.043Z,9.18
2023-02-09T18:36:20.781Z,9.82
2023-02-09T18:38:48.192Z,9.88
2023-02-09T18:41:14.841Z,9.45
2023-02-09T18:43:41.417Z,9.95
2023-02-09T18:46:08.054Z,9.63
2023-02-09T18:48:34.762Z,10.18
2023-02-09T18:51:01.345Z,9.63
2023-02-09T18:53:27.949Z,11.02
2023-02-09T18:55:54.544Z,10.02
2023-02-09T18:58:21.150Z,10.73
2023-02-09T19:00:47.831Z,9.90
2023-02-09T19:03:16.977Z,10.15
2023-02-09T19:05:43.639Z,9.82
2023-02-09T19:08:10.279Z,10.20
2023-02-09T19:10:37.042Z,10.77
2023-02-09T19:13:04.991Z,11.50
2023-02-09T19:15:35.637Z,11.07
2023-02-09T19:18:02.491Z,10.55
2023-02-09T19:20:30.844Z,10.45
2023-02-09T19:22:58.366Z,10.70
2023-02-09T19:25:27.077Z,10.70
2023-02-09T19:27:54.118Z,11.40
2023-02-09T19:30:25.056Z,10.90
2023-02-09T19:32:53.470Z,11.27
2023-02-09T19:35:22.552Z,11.10
2023-02-09T19:37:57.507Z,10.88
2023-02-09T19:40:35.714Z,12.15
2023-02-09T19:43:04.004Z,12.02
2023-02-09T19:45:36.522Z,12.27
2023-02-09T19:48:04.892Z,11.45
2023-02-09T19:50:31.518Z,12.77
2023-02-09T19:52:58.143Z,13.15
2023-02-09T19:55:24.746Z,12.80
2023-02-09T19:57:51.287Z,12.45
2023-02-09T20:00:18.294Z,13.13
2023-02-09T20:02:45.809Z,13.30
2023-02-09T20:05:13.103Z,13.07
2023-02-09T20:07:39.793Z,12.90
2023-02-09T20:10:06.857Z,12.18
2023-02-09T20:12:33.721Z,13.43
2023-02-09T20:15:00.340Z,13.77
2023-02-09T20:17:27.993Z,14.05
2023-02-09T20:19:54.653Z,13.85
2023-02-09T20:22:21.577Z,14.15
2023-02-09T20:24:48.162Z,13.30
2023-02-09T20:27:14.778Z,12.60
2023-02-09T20:29:41.438Z,12.77
2023-02-09T20:32:08.052Z,14.77
2023-02-09T20:34:34.863Z,14.60
2023-02-09T20:37:01.556Z,13.95
2023-02-09T20:39:28.350Z,14.05
2023-02-09T20:42:15.784Z,15.00
2023-02-09T20:45:01.426Z,14.75
2023-02-09T20:47:29.821Z,12.88
2023-02-09T20:52:23.382Z,14.43
2023-02-09T20:54:49.994Z,15.05
2023-02-09T20:57:16.605Z,13.65
2023-02-09T20:59:43.303Z,14.45
2023-02-09T21:02:15.031Z,13.52
2023-02-09T21:04:42.115Z,15.75
2023-02-09T21:07:08.725Z,14.48
2023-02-09T21:09:35.426Z,13.85
2023-02-09T21:12:01.983Z,13.65
2023-02-09T21:14:41.296Z,14.93
2023-02-09T21:17:08.513Z,14.88
2023-02-09T21:19:35.111Z,15.77
2023-02-09T21:22:01.784Z,13.80
2023-02-09T21:24:28.398Z,14.93
2023-02-09T21:26:55.048Z,14.45
2023-02-09T21:29:21.648Z,14.75
2023-02-09T21:31:48.289Z,15.68
2023-02-09T21:34:16.223Z,16.08
2023-02-09T21:36:43.005Z,16.27
2023-02-09T21:39:09.692Z,15.88
2023-02-09T21:41:54.938Z,15.73
2023-02-09T21:44:21.549Z,14.98
2023-02-09T21:46:49.387Z,15.00
2023-02-09T21:49:16.345Z,14.48
2023-02-09T21:51:43.267Z,14.93
2023-02-09T21:54:15.277Z,14.93
2023-02-09T21:56:42.093Z,14.52
2023-02-09T21:59:08.845Z,15.75
2023-02-09T22:01:35.998Z,15.10
2023-02-09T22:04:03.044Z,15.20
2023-02-09T22:06:30.548Z,15.32
2023-02-09T22:08:57.606Z,16.30
2023-02-09T22:11:24.186Z,15.45
2023-02-09T22:13:50.771Z,16.05
2023-02-09T22:16:19.579Z,16.10
2023-02-09T22:18:46.217Z,16.38
2023-02-09T22:21:13.194Z,15.13
2023-02-09T22:23:39.907Z,16.80
2023-02-09T22:26:07.025Z,16.15
2023-02-09T22:28:36.334Z,17.20
2023-02-09T22:31:20.457Z,16.05
2023-02-09T22:33:47.520Z,17.65
2023-02-09T22:36:16.784Z,17.20
2023-02-09T22:38:44.822Z,16.23
2023-02-09T22:41:21.691Z,17.00
2023-02-09T22:43:51.677Z,15.75
2023-02-09T22:46:18.959Z,17.17
2023-02-09T22:49:08.438Z,15.75
2023-02-09T22:51:36.387Z,17.33
2023-02-09T22:54:03.277Z,16.67
2023-02-09T22:56:30.283Z,17.45
2023-02-09T22:58:57.718Z,17.33
2023-02-09T23:01:24.529Z,17.75
2023-02-09T23:03:51.234Z,18.27
2023-02-09T23:06:20.227Z,16.05
2023-02-09T23:08:47.348Z,18.35
2023-02-09T23:11:16.651Z,16.83
2023-02-09T23:13:43.702Z,17.23
2023-02-09T23:16:22.144Z,18.08
2023-02-09T23:18:54.621Z,18.40
2023-02-09T23:21:23.882Z,18.00
2023-02-09T23:23:50.837Z,17.45
2023-02-09T23:26:18.589Z,17.98
2023-02-09T23:28:45.623Z,19.10
2023-02-09T23:31:14.712Z,18.73
2023-02-09T23:33:41.703Z,18.17
2023-02-09T23:36:10.924Z,19.17
2023-02-09T23:38:37.662Z,19.55
2023-02-09T23:41:12.556Z,20.92
2023-02-09T23:43:39.611Z,19.00
2023-02-09T23:46:08.764Z,18.88
2023-02-09T23:48:35.379Z,19.08
2023-02-09T23:51:08.773Z,20.42
2023-02-09T23:53:35.968Z,19.63
2023-02-09T23:56:06.106Z,19.88
2023-02-09T23:58:36.839Z,21.83
